createdAt,value
2018-05-07T00:01:40.860Z,17.77
2018-05-07T00:04:08.501Z,17.62
2018-05-07T00:06:36.167Z,17.61
2018-05-07T00:09:03.752Z,17.55
2018-05-07T00:11:31.497Z,17.53
2018-05-07T00:13:58.988Z,17.52
2018-05-07T00:16:26.632Z,17.49
2018-05-07T00:18:54.225Z,17.52
2018-05-07T00:21:21.853Z,17.51
2018-05-07T00:23:49.581Z,17.61
2018-05-07T00:26:17.214Z,17.44
2018-05-07T00:28:45.329Z,17.53
2018-05-07T00:31:13.033Z,17.56
2018-05-07T00:33:40.616Z,17.54
2018-05-07T00:36:08.330Z,17.63
2018-05-07T00:38:35.971Z,17.45
2018-05-07T00:41:03.609Z,17.13
2018-05-07T00:43:31.222Z,17.27
2018-05-07T00:45:58.993Z,17.20
2018-05-07T00:48:26.600Z,17.30
2018-05-07T00:50:54.297Z,17.08
2018-05-07T00:53:21.916Z,17.14
2018-05-07T00:55:49.560Z,17.10
2018-05-07T00:58:17.214Z,17.00
2018-05-07T01:00:44.892Z,17.09
2018-05-07T01:03:12.493Z,17.03
2018-05-07T01:05:40.096Z,16.96
2018-05-07T01:08:07.720Z,16.92
2018-05-07T01:10:35.358Z,17.00
2018-05-07T01:13:02.981Z,17.07
2018-05-07T01:15:30.581Z,16.93
2018-05-07T01:17:58.232Z,16.90
2018-05-07T01:20:25.828Z,17.03
2018-05-07T01:22:53.465Z,16.93
2018-05-07T01:25:21.136Z,16.96
2018-05-07T01:27:48.776Z,16.81
2018-05-07T01:30:16.379Z,16.73
2018-05-07T01:32:44.078Z,16.69
2018-05-07T01:35:11.675Z,16.68
2018-05-07T01:37:39.347Z,16.61
2018-05-07T01:40:06.959Z,16.50
2018-05-07T01:42:34.617Z,16.40
2018-05-07T01:45:02.221Z,16.58
2018-05-07T01:47:29.892Z,16.57
2018-05-07T01:49:57.540Z,16.50
2018-05-07T01:52:25.165Z,16.62
2018-05-07T01:54:52.803Z,16.54
2018-05-07T01:57:20.417Z,16.53
2018-05-07T01:59:48.069Z,16.41
2018-05-07T02:02:15.693Z,16.37
2018-05-07T02:04:43.365Z,16.50
2018-05-07T02:07:10.976Z,16.31
2018-05-07T02:09:38.602Z,16.16
2018-05-07T02:12:06.192Z,16.25
2018-05-07T02:14:33.832Z,16.09
2018-05-07T02:17:01.527Z,16.27
2018-05-07T02:19:29.164Z,16.29
2018-05-07T02:21:56.758Z,16.18
2018-05-07T02:24:24.357Z,16.03
2018-05-07T02:26:52.068Z,15.96
2018-05-07T02:29:19.705Z,15.93
2018-05-07T02:31:47.390Z,15.91
2018-05-07T02:34:14.992Z,15.70
2018-05-07T02:36:42.651Z,15.82
2018-05-07T02:39:10.350Z,15.90
2018-05-07T02:41:38.045Z,15.87
2018-05-07T02:44:05.651Z,15.67
2018-05-07T02:46:33.287Z,15.66
2018-05-07T02:49:01.025Z,15.81
2018-05-07T02:51:28.790Z,15.92
2018-05-07T02:53:56.421Z,15.60
2018-05-07T02:56:24.090Z,15.55
2018-05-07T02:58:51.761Z,15.58
2018-05-07T03:01:19.449Z,15.57
2018-05-07T03:03:47.045Z,15.43
2018-05-07T03:06:14.667Z,15.53
2018-05-07T03:08:42.304Z,15.43
2018-05-07T03:11:09.932Z,15.37
2018-05-07T03:13:37.610Z,15.07
2018-05-07T03:16:05.204Z,14.95
2018-05-07T03:18:32.841Z,14.82
2018-05-07T03:21:00.465Z,14.95
2018-05-07T03:23:28.161Z,14.91
2018-05-07T03:25:55.753Z,14.51
2018-05-07T03:28:23.397Z,14.31
2018-05-07T03:30:51.029Z,14.31
2018-05-07T03:33:18.666Z,14.30
2018-05-07T03:35:46.301Z,14.36
2018-05-07T03:38:13.986Z,14.21
2018-05-07T03:40:41.610Z,14.18
2018-05-07T03:43:09.321Z,14.23
2018-05-07T03:45:36.959Z,14.49
2018-05-07T03:48:04.606Z,14.57
2018-05-07T03:50:32.197Z,14.63
2018-05-07T03:52:59.798Z,14.53
2018-05-07T03:55:27.422Z,14.54
2018-05-07T03:57:55.028Z,14.40
2018-05-07T04:00:22.666Z,14.27
2018-05-07T04:02:50.309Z,14.19
2018-05-07T04:05:17.956Z,14.42
2018-05-07T04:07:47.301Z,14.76
2018-05-07T04:10:14.929Z,14.93
2018-05-07T04:12:42.541Z,14.63
2018-05-07T04:15:10.177Z,14.59
2018-05-07T04:17:49.387Z,14.66
2018-05-07T04:20:28.512Z,14.68
2018-05-07T04:23:07.722Z,14.61
2018-05-07T04:25:35.354Z,14.68
2018-05-07T04:28:02.945Z,14.84
2018-05-07T04:30:30.598Z,15.06
2018-05-07T04:32:58.212Z,15.25
2018-05-07T04:35:25.837Z,14.97
2018-05-07T04:37:53.432Z,14.90
2018-05-07T04:40:21.094Z,14.77
2018-05-07T04:42:48.723Z,14.69
2018-05-07T04:45:16.357Z,14.79
2018-05-07T04:47:43.971Z,14.87
2018-05-07T04:50:11.610Z,14.98
2018-05-07T04:52:39.204Z,14.98
2018-05-07T04:55:06.836Z,15.10
2018-05-07T04:57:34.471Z,15.25
2018-05-07T05:00:02.061Z,15.32
2018-05-07T05:02:29.714Z,15.35
2018-05-07T05:04:57.311Z,15.45
2018-05-07T05:07:24.956Z,15.59
2018-05-07T05:09:52.557Z,15.72
2018-05-07T05:12:20.205Z,15.84
2018-05-07T05:14:47.841Z,16.00
2018-05-07T05:17:15.470Z,16.15
2018-05-07T05:19:43.082Z,16.28
2018-05-07T05:22:10.725Z,16.38
2018-05-07T05:24:38.313Z,16.49
2018-05-07T05:27:05.946Z,16.45
2018-05-07T05:29:33.559Z,16.36
2018-05-07T05:32:01.200Z,16.41
2018-05-07T05:34:28.799Z,16.61
2018-05-07T05:36:56.429Z,16.72
2018-05-07T05:39:24.042Z,16.76
2018-05-07T05:41:51.738Z,16.84
2018-05-07T05:44:19.341Z,16.78
2018-05-07T05:46:47.008Z,16.76
2018-05-07T05:49:14.606Z,16.86
2018-05-07T05:51:42.306Z,16.85
2018-05-07T05:54:09.929Z,16.82
2018-05-07T05:56:37.598Z,16.82
2018-05-07T05:59:05.264Z,16.75
2018-05-07T06:01:32.869Z,16.73
2018-05-07T06:04:00.584Z,16.81
2018-05-07T06:06:28.166Z,16.79
2018-05-07T06:08:55.957Z,16.90
2018-05-07T06:11:23.533Z,16.96
2018-05-07T06:13:51.172Z,17.06
2018-05-07T06:16:18.780Z,17.14
2018-05-07T06:18:46.428Z,17.27
2018-05-07T06:21:14.076Z,17.26
2018-05-07T06:23:41.727Z,17.22
2018-05-07T06:26:09.355Z,17.20
2018-05-07T06:28:37.024Z,17.29
2018-05-07T06:31:04.657Z,17.37
2018-05-07T06:33:32.315Z,17.49
2018-05-07T06:35:59.912Z,17.51
2018-05-07T06:38:27.553Z,17.61
2018-05-07T06:40:55.155Z,17.73
2018-05-07T06:43:22.804Z,17.83
2018-05-07T06:45:50.509Z,17.86
2018-05-07T06:48:18.196Z,17.91
2018-05-07T06:50:45.876Z,17.98
2018-05-07T06:53:13.483Z,18.15
2018-05-07T06:55:41.246Z,18.13
2018-05-07T06:58:08.841Z,18.15
2018-05-07T07:00:36.471Z,18.14
2018-05-07T07:03:04.073Z,18.21
2018-05-07T07:05:31.720Z,18.35
2018-05-07T07:07:59.332Z,18.46
2018-05-07T07:10:26.969Z,18.61
2018-05-07T07:12:54.584Z,18.68
2018-05-07T07:15:22.217Z,18.73
2018-05-07T07:17:49.829Z,18.78
2018-05-07T07:20:17.492Z,18.85
2018-05-07T07:22:45.106Z,18.94
2018-05-07T07:25:12.824Z,19.09
2018-05-07T07:27:40.428Z,19.25
2018-05-07T07:30:08.120Z,19.33
2018-05-07T07:32:35.766Z,19.35
2018-05-07T07:35:03.445Z,19.52
2018-05-07T07:37:31.122Z,19.57
2018-05-07T07:39:58.721Z,19.70
2018-05-07T07:42:26.357Z,19.72
2018-05-07T07:44:53.968Z,19.74
2018-05-07T07:47:21.798Z,19.77
2018-05-07T07:49:49.358Z,19.80
2018-05-07T07:52:16.995Z,19.93
2018-05-07T07:54:44.630Z,20.04
2018-05-07T07:57:12.292Z,20.12
2018-05-07T07:59:40.553Z,20.19
2018-05-07T08:02:08.416Z,20.21
2018-05-07T08:04:36.160Z,20.38
2018-05-07T08:07:04.308Z,20.44
2018-05-07T08:09:32.078Z,20.49
2018-05-07T08:11:59.726Z,20.66
2018-05-07T08:14:27.432Z,20.55
2018-05-07T08:16:55.949Z,20.41
2018-05-07T08:19:23.701Z,20.64
2018-05-07T08:21:51.344Z,20.81
2018-05-07T08:24:18.987Z,20.85
2018-05-07T08:26:46.600Z,21.01
2018-05-07T08:29:14.220Z,21.22
2018-05-07T08:31:41.845Z,21.31
2018-05-07T08:34:09.553Z,21.03
2018-05-07T08:36:37.207Z,21.22
2018-05-07T08:39:05.602Z,21.31
2018-05-07T08:41:33.205Z,21.46
2018-05-07T08:44:00.905Z,21.50
2018-05-07T08:46:28.518Z,21.54
2018-05-07T08:48:56.136Z,21.50
2018-05-07T08:51:23.742Z,21.48
2018-05-07T08:53:51.372Z,21.59
2018-05-07T08:56:18.985Z,21.60
2018-05-07T08:58:46.678Z,21.58
2018-05-07T09:01:14.281Z,21.87
2018-05-07T09:03:41.932Z,22.09
2018-05-07T09:06:09.522Z,22.13
2018-05-07T09:08:37.245Z,22.18
2018-05-07T09:11:04.850Z,22.22
2018-05-07T09:13:32.504Z,22.52
2018-05-07T09:16:00.156Z,22.79
2018-05-07T09:18:27.765Z,22.91
2018-05-07T09:20:55.413Z,22.96
2018-05-07T09:23:23.023Z,23.00
2018-05-07T09:25:50.652Z,23.16
2018-05-07T09:28:18.305Z,23.13
2018-05-07T09:30:46.081Z,23.13
2018-05-07T09:33:13.678Z,23.29
2018-05-07T09:35:41.314Z,23.32
2018-05-07T09:38:08.926Z,23.30
2018-05-07T09:40:36.565Z,23.54
2018-05-07T09:43:04.273Z,23.65
2018-05-07T09:45:31.886Z,23.54
2018-05-07T09:47:59.832Z,23.66
2018-05-07T09:50:27.455Z,24.01
2018-05-07T09:52:55.085Z,24.07
2018-05-07T09:55:22.686Z,24.07
2018-05-07T09:58:02.952Z,23.92
2018-05-07T10:00:36.152Z,23.71
2018-05-07T10:03:03.785Z,23.91
2018-05-07T10:05:31.361Z,23.85
2018-05-07T10:07:59.112Z,23.74
2018-05-07T10:10:26.740Z,23.64
2018-05-07T10:12:54.429Z,23.70
2018-05-07T10:15:22.058Z,23.96
2018-05-07T10:17:49.689Z,24.02
2018-05-07T10:20:17.473Z,24.22
2018-05-07T10:22:45.121Z,24.19
2018-05-07T10:25:12.724Z,24.28
2018-05-07T10:27:40.364Z,24.21
2018-05-07T10:30:07.964Z,24.60
2018-05-07T10:32:35.688Z,24.73
2018-05-07T10:35:03.306Z,24.61
2018-05-07T10:37:30.927Z,24.70
2018-05-07T10:39:58.557Z,25.14
2018-05-07T10:42:26.171Z,25.46
2018-05-07T10:44:53.806Z,25.82
2018-05-07T10:47:21.395Z,25.74
2018-05-07T10:49:49.063Z,25.63
2018-05-07T10:52:16.736Z,25.29
2018-05-07T10:54:44.300Z,25.44
2018-05-07T10:57:11.926Z,25.72
2018-05-07T10:59:39.682Z,26.09
2018-05-07T11:02:07.281Z,26.31
2018-05-07T11:04:34.937Z,26.36
2018-05-07T11:07:02.536Z,26.48
2018-05-07T11:09:30.126Z,26.79
2018-05-07T11:11:57.865Z,27.00
2018-05-07T11:14:25.517Z,27.10
2018-05-07T11:16:53.140Z,26.48
2018-05-07T11:19:20.750Z,26.62
2018-05-07T11:21:48.412Z,26.57
2018-05-07T11:24:16.026Z,26.73
2018-05-07T11:26:43.665Z,27.11
2018-05-07T11:29:11.276Z,26.94
2018-05-07T11:31:38.921Z,26.78
2018-05-07T11:34:06.525Z,26.81
2018-05-07T11:36:34.182Z,27.21
2018-05-07T11:39:01.800Z,27.60
2018-05-07T11:41:29.474Z,27.88
2018-05-07T11:43:57.060Z,27.62
2018-05-07T11:46:24.702Z,27.43
2018-05-07T11:48:52.341Z,27.58
2018-05-07T11:51:19.943Z,27.92
2018-05-07T11:53:47.577Z,27.77
2018-05-07T11:56:15.170Z,27.58
2018-05-07T11:58:42.873Z,27.33
2018-05-07T12:01:10.569Z,27.01
2018-05-07T12:03:38.249Z,27.08
2018-05-07T12:06:05.853Z,27.43
2018-05-07T12:08:33.486Z,27.54
2018-05-07T12:11:01.149Z,27.70
2018-05-07T12:13:28.840Z,27.90
2018-05-07T12:15:56.553Z,28.27
2018-05-07T12:18:24.109Z,28.31
2018-05-07T12:20:51.717Z,28.01
2018-05-07T12:23:19.477Z,28.08
2018-05-07T12:25:47.088Z,28.38
2018-05-07T12:28:14.739Z,28.04
2018-05-07T12:30:42.342Z,28.29
2018-05-07T12:33:09.941Z,27.84
2018-05-07T12:35:37.741Z,28.37
2018-05-07T12:38:05.350Z,28.92
2018-05-07T12:40:32.980Z,28.69
2018-05-07T12:43:00.574Z,28.74
2018-05-07T12:45:28.209Z,28.87
2018-05-07T12:47:55.821Z,29.08
2018-05-07T12:50:23.514Z,29.10
2018-05-07T12:52:51.108Z,28.96
2018-05-07T12:55:18.740Z,29.14
2018-05-07T12:57:46.336Z,29.64
2018-05-07T13:00:14.019Z,29.39
2018-05-07T13:02:41.680Z,29.66
2018-05-07T13:05:09.341Z,30.38
2018-05-07T13:07:36.941Z,30.46
2018-05-07T13:10:04.590Z,30.53
2018-05-07T13:12:32.200Z,30.20
2018-05-07T13:14:59.933Z,29.69
2018-05-07T13:17:27.527Z,30.12
2018-05-07T13:19:55.110Z,30.41
2018-05-07T13:22:22.756Z,30.19
2018-05-07T13:24:50.457Z,29.95
2018-05-07T13:27:18.044Z,30.34
2018-05-07T13:29:45.646Z,30.48
2018-05-07T13:32:13.272Z,30.48
2018-05-07T13:34:40.903Z,30.24
2018-05-07T13:37:08.537Z,30.51
2018-05-07T13:39:36.153Z,30.79
2018-05-07T13:42:03.865Z,30.62
2018-05-07T13:44:31.449Z,30.37
2018-05-07T13:46:59.075Z,30.19
2018-05-07T13:49:26.677Z,30.37
2018-05-07T13:51:54.357Z,30.73
2018-05-07T13:54:21.961Z,30.51
2018-05-07T13:56:49.648Z,30.33
2018-05-07T13:59:17.212Z,30.03
2018-05-07T14:01:44.848Z,29.64
2018-05-07T14:04:12.531Z,29.97
2018-05-07T14:06:40.184Z,30.19
2018-05-07T14:09:07.830Z,30.60
2018-05-07T14:11:35.446Z,30.95
2018-05-07T14:14:03.201Z,31.13
2018-05-07T14:16:30.798Z,30.78
2018-05-07T14:18:58.540Z,30.57
2018-05-07T14:21:26.145Z,30.76
2018-05-07T14:23:53.808Z,30.61
2018-05-07T14:26:21.521Z,31.14
2018-05-07T14:28:49.184Z,30.99
2018-05-07T14:31:16.802Z,31.00
2018-05-07T14:33:44.457Z,31.44
2018-05-07T14:36:12.061Z,31.36
2018-05-07T14:38:39.740Z,31.54
2018-05-07T14:41:07.349Z,31.29
2018-05-07T14:43:34.957Z,31.49
2018-05-07T14:46:02.638Z,31.71
2018-05-07T14:48:30.253Z,31.19
2018-05-07T14:50:57.952Z,31.03
2018-05-07T14:53:25.544Z,31.30
2018-05-07T14:55:53.255Z,31.75
2018-05-07T14:58:20.770Z,31.70
2018-05-07T15:00:48.426Z,31.60
2018-05-07T15:03:16.035Z,31.50
2018-05-07T15:05:43.741Z,31.37
2018-05-07T15:08:11.352Z,31.53
2018-05-07T15:10:38.980Z,32.14
2018-05-07T15:13:06.633Z,32.37
2018-05-07T15:15:34.296Z,32.22
2018-05-07T15:18:01.920Z,32.42
2018-05-07T15:20:29.533Z,32.20
2018-05-07T15:22:57.166Z,32.37
2018-05-07T15:25:24.766Z,32.27
2018-05-07T15:27:52.399Z,32.14
2018-05-07T15:30:19.992Z,32.43
2018-05-07T15:32:47.672Z,32.58
2018-05-07T15:35:15.262Z,32.55
2018-05-07T15:37:42.896Z,32.48
2018-05-07T15:40:10.532Z,32.01
2018-05-07T15:42:38.169Z,31.96
2018-05-07T15:45:05.856Z,31.91
2018-05-07T15:47:33.555Z,31.99
2018-05-07T15:50:01.171Z,32.14
2018-05-07T15:52:28.806Z,31.78
2018-05-07T15:54:56.414Z,31.74
2018-05-07T15:57:24.038Z,31.95
2018-05-07T15:59:51.629Z,31.86
2018-05-07T16:02:19.300Z,32.01
2018-05-07T16:04:46.920Z,31.69
2018-05-07T16:07:14.576Z,32.05
2018-05-07T16:09:42.230Z,31.96
2018-05-07T16:12:09.833Z,31.78
2018-05-07T16:14:37.460Z,31.66
2018-05-07T16:17:05.119Z,31.57
2018-05-07T16:19:32.777Z,31.42
2018-05-07T16:22:00.531Z,31.41
2018-05-07T16:24:28.108Z,31.46
2018-05-07T16:26:55.791Z,31.58
2018-05-07T16:29:23.433Z,31.92
2018-05-07T16:31:51.068Z,31.80
2018-05-07T16:34:18.705Z,31.59
2018-05-07T16:36:46.309Z,31.54
2018-05-07T16:39:13.943Z,31.65
2018-05-07T16:41:41.627Z,31.66
2018-05-07T16:44:09.380Z,31.24
2018-05-07T16:46:37.021Z,31.40
2018-05-07T16:49:04.892Z,31.21
2018-05-07T16:51:32.488Z,31.40
2018-05-07T16:54:00.090Z,31.44
2018-05-07T16:56:27.819Z,31.38
2018-05-07T16:58:55.478Z,31.60
2018-05-07T17:01:23.129Z,31.34
2018-05-07T17:03:50.734Z,31.21
2018-05-07T17:06:18.360Z,31.11
2018-05-07T17:08:45.959Z,31.20
2018-05-07T17:11:13.653Z,31.15
2018-05-07T17:13:41.319Z,30.69
2018-05-07T17:16:08.985Z,30.79
2018-05-07T17:18:36.598Z,30.95
2018-05-07T17:21:04.235Z,31.13
2018-05-07T17:23:31.837Z,31.24
2018-05-07T17:25:59.625Z,31.09
2018-05-07T17:28:27.224Z,30.89
2018-05-07T17:30:54.817Z,30.60
2018-05-07T17:33:22.538Z,30.56
2018-05-07T17:35:50.199Z,30.57
2018-05-07T17:38:17.950Z,30.50
2018-05-07T17:40:45.561Z,30.31
2018-05-07T17:43:13.203Z,30.15
2018-05-07T17:46:04.316Z,30.12
2018-05-07T17:48:43.613Z,30.03
2018-05-07T17:51:11.363Z,29.74
2018-05-07T17:53:39.025Z,29.79
2018-05-07T17:56:06.641Z,29.78
2018-05-07T17:58:34.272Z,29.60
2018-05-07T18:01:01.889Z,29.40
2018-05-07T18:03:29.628Z,29.22
2018-05-07T18:05:57.230Z,29.11
2018-05-07T18:08:24.874Z,28.75
2018-05-07T18:10:52.532Z,28.48
2018-05-07T18:13:20.219Z,28.29
2018-05-07T18:15:47.966Z,28.08
2018-05-07T18:18:15.618Z,27.86
2018-05-07T18:20:43.227Z,27.73
2018-05-07T18:23:11.098Z,27.55
2018-05-07T18:25:38.492Z,27.37
2018-05-07T18:28:06.141Z,27.35
2018-05-07T18:30:33.741Z,27.25
2018-05-07T18:33:01.342Z,27.19
2018-05-07T18:35:28.984Z,27.14
2018-05-07T18:37:56.637Z,27.10
2018-05-07T18:40:24.319Z,27.01
2018-05-07T18:42:51.908Z,26.94
2018-05-07T18:45:19.583Z,26.80
2018-05-07T18:47:47.228Z,26.75
2018-05-07T18:50:14.869Z,26.73
2018-05-07T18:52:42.506Z,26.68
2018-05-07T18:55:10.204Z,26.52
2018-05-07T18:57:37.793Z,26.38
2018-05-07T19:00:05.458Z,26.22
2018-05-07T19:02:33.189Z,26.18
2018-05-07T19:05:00.861Z,26.13
2018-05-07T19:07:28.477Z,26.06
2018-05-07T19:09:56.153Z,26.01
2018-05-07T19:12:23.816Z,26.00
2018-05-07T19:14:51.456Z,26.03
2018-05-07T19:17:19.061Z,25.98
2018-05-07T19:19:46.665Z,25.84
2018-05-07T19:22:14.354Z,25.65
2018-05-07T19:24:41.978Z,25.50
2018-05-07T19:27:09.662Z,25.35
2018-05-07T19:29:37.387Z,25.10
2018-05-07T19:32:05.006Z,24.91
2018-05-07T19:34:32.625Z,24.70
2018-05-07T19:37:00.279Z,24.54
2018-05-07T19:39:27.886Z,24.27
2018-05-07T19:41:55.620Z,24.16
2018-05-07T19:44:23.262Z,24.01
2018-05-07T19:46:50.914Z,24.06
2018-05-07T19:49:18.523Z,24.09
2018-05-07T19:51:46.190Z,24.10
2018-05-07T19:54:13.804Z,24.14
2018-05-07T19:56:41.455Z,24.17
2018-05-07T19:59:09.081Z,23.97
2018-05-07T20:01:36.734Z,23.70
2018-05-07T20:04:04.345Z,23.48
2018-05-07T20:06:31.949Z,23.31
2018-05-07T20:08:59.637Z,23.24
2018-05-07T20:11:27.258Z,23.14
2018-05-07T20:13:54.984Z,23.30
2018-05-07T20:16:22.620Z,23.48
2018-05-07T20:18:50.265Z,23.51
2018-05-07T20:21:17.867Z,23.63
2018-05-07T20:23:45.589Z,23.58
2018-05-07T20:26:13.196Z,23.55
2018-05-07T20:28:40.835Z,23.48
2018-05-07T20:31:08.426Z,23.47
2018-05-07T20:33:36.097Z,23.48
2018-05-07T20:36:03.823Z,23.42
2018-05-07T20:38:31.468Z,23.41
2018-05-07T20:40:59.103Z,23.25
2018-05-07T20:43:26.829Z,23.21
2018-05-07T20:45:54.489Z,23.09
2018-05-07T20:48:22.214Z,22.75
2018-05-07T20:50:49.773Z,22.58
2018-05-07T20:53:17.383Z,22.42
2018-05-07T20:55:45.035Z,22.20
2018-05-07T20:58:12.628Z,22.16
2018-05-07T21:00:40.266Z,22.07
2018-05-07T21:03:07.853Z,21.99
2018-05-07T21:05:35.497Z,22.00
2018-05-07T21:08:03.159Z,22.01
2018-05-07T21:10:30.785Z,22.10
2018-05-07T21:12:58.405Z,22.27
2018-05-07T21:15:26.066Z,22.35
2018-05-07T21:17:53.669Z,22.39
2018-05-07T21:20:21.298Z,22.29
2018-05-07T21:22:48.900Z,22.25
2018-05-07T21:25:16.532Z,22.26
2018-05-07T21:27:44.134Z,22.34
2018-05-07T21:30:11.778Z,22.44
2018-05-07T21:32:39.382Z,22.29
2018-05-07T21:35:07.006Z,22.29
2018-05-07T21:37:34.630Z,22.20
2018-05-07T21:40:02.261Z,22.07
2018-05-07T21:42:29.955Z,22.00
2018-05-07T21:44:57.585Z,21.78
2018-05-07T21:47:25.177Z,21.74
2018-05-07T21:49:52.862Z,21.63
2018-05-07T21:52:20.524Z,21.59
2018-05-07T21:54:48.165Z,21.50
2018-05-07T21:57:15.788Z,21.42
2018-05-07T21:59:43.393Z,21.43
2018-05-07T22:02:11.115Z,21.43
2018-05-07T22:04:38.665Z,21.26
2018-05-07T22:07:06.304Z,21.31
2018-05-07T22:09:33.930Z,21.35
2018-05-07T22:12:01.557Z,21.45
2018-05-07T22:14:29.204Z,21.56
2018-05-07T22:16:56.820Z,21.60
2018-05-07T22:19:24.416Z,21.60
2018-05-07T22:21:52.064Z,21.61
2018-05-07T22:24:19.669Z,21.63
2018-05-07T22:26:47.306Z,21.62
2018-05-07T22:29:14.946Z,21.54
2018-05-07T22:31:42.561Z,21.57
2018-05-07T22:34:10.170Z,21.56
2018-05-07T22:36:37.813Z,21.57
2018-05-07T22:39:17.049Z,21.52
2018-05-07T22:41:44.656Z,21.47
2018-05-07T22:44:12.270Z,21.30
2018-05-07T22:46:39.904Z,21.38
2018-05-07T22:49:07.632Z,21.43
2018-05-07T22:51:35.253Z,21.48
2018-05-07T22:54:02.874Z,21.51
2018-05-07T22:56:30.481Z,21.45
2018-05-07T22:58:58.123Z,21.47
2018-05-07T23:01:25.731Z,21.37
2018-05-07T23:03:53.373Z,21.33
2018-05-07T23:06:20.966Z,21.28
2018-05-07T23:08:48.563Z,21.18
2018-05-07T23:11:16.195Z,20.97
2018-05-07T23:13:43.778Z,20.83
2018-05-07T23:16:11.477Z,20.63
2018-05-07T23:18:39.093Z,20.55
2018-05-07T23:21:06.728Z,20.50
2018-05-07T23:23:34.323Z,20.46
2018-05-07T23:26:01.981Z,20.31
2018-05-07T23:28:29.590Z,20.19
2018-05-07T23:30:57.221Z,20.20
2018-05-07T23:33:24.809Z,20.31
2018-05-07T23:35:52.440Z,20.33
2018-05-07T23:38:20.048Z,20.40
2018-05-07T23:40:48.000Z,20.33
2018-05-07T23:43:15.597Z,20.08
2018-05-07T23:45:43.209Z,19.94
2018-05-07T23:48:10.845Z,19.89
2018-05-07T23:50:38.456Z,19.92
2018-05-07T23:53:06.085Z,19.92
2018-05-07T23:55:33.741Z,19.89
2018-05-07T23:58:01.443Z,19.92
